Time;durP1;ratioP1;P1;durP2;ratioP2;P2;SDS_P1;SDS_P2;PMS_P1;PMS_P2;Temp;Humidity;BMP_temperature;BMP_pressure;BME280_temperature;BME280_humidity;BME280_pressure;Samples;Min_cycle;Max_cycle;Signal;HPM_P1;HPM_P2
2022/01/19 00:02:18;;;;;;;9.07;6.10;;;;;;;;;;4996270;28;20194;-78
2022/01/19 00:04:43;;;;;;;10.60;6.93;;;;;;;;;;5013116;28;20297;-78
2022/01/19 00:07:08;;;;;;;8.80;6.63;;;;;;;;;;4992573;28;20175;-78
2022/01/19 00:09:33;;;;;;;8.57;7.07;;;;;;;;;;4998038;28;20254;-78
2022/01/19 00:11:59;;;;;;;9.47;7.20;;;;;;;;;;4990426;28;20218;-78
2022/01/19 00:14:24;;;;;;;10.30;7.43;;;;;;;;;;4995988;28;20238;-78
2022/01/19 00:16:49;;;;;;;11.13;7.73;;;;;;;;;;4992299;28;20258;-78
2022/01/19 00:19:14;;;;;;;11.77;8.07;;;;;;;;;;5013541;28;20259;-78
2022/01/19 00:21:39;;;;;;;11.50;8.10;;;;;;;;;;4996398;28;20282;-78
2022/01/19 00:24:06;;;;;;;10.80;8.27;;;;;;;;;;4998701;28;20187;-78
2022/01/19 00:26:31;;;;;;;10.83;7.47;;;;;;;;;;4993828;28;20184;-78
2022/01/19 00:28:57;;;;;;;13.87;8.40;;;;;;;;;;4999282;28;20189;-77
2022/01/19 00:31:23;;;;;;;12.07;8.63;;;;;;;;;;4998294;28;20218;-78
2022/01/19 00:33:48;;;;;;;13.10;8.70;;;;;;;;;;4998350;28;20488;-78
2022/01/19 00:36:13;;;;;;;11.97;8.40;;;;;;;;;;4996846;28;20499;-78
2022/01/19 00:38:38;;;;;;;13.43;8.77;;;;;;;;;;4994019;28;20224;-78
2022/01/19 00:41:03;;;;;;;12.70;8.60;;;;;;;;;;4994558;28;20210;-78
2022/01/19 00:43:29;;;;;;;13.93;9.90;;;;;;;;;;5003278;28;20202;-78
2022/01/19 00:45:54;;;;;;;12.17;8.80;;;;;;;;;;4995017;28;20179;-78
2022/01/19 00:48:19;;;;;;;13.40;9.33;;;;;;;;;;4998540;28;20176;-78
2022/01/19 00:50:44;;;;;;;13.97;9.50;;;;;;;;;;4995962;28;20440;-77
2022/01/19 00:53:09;;;;;;;14.03;8.70;;;;;;;;;;4985497;28;20293;-78
2022/01/19 00:55:35;;;;;;;10.63;8.87;;;;;;;;;;4999104;28;20187;-78
2022/01/19 00:58:00;;;;;;;13.90;9.77;;;;;;;;;;4996739;28;20176;-78
2022/01/19 01:00:26;;;;;;;11.00;8.90;;;;;;;;;;4996725;28;20176;-77
2022/01/19 01:02:53;;;;;;;16.60;9.63;;;;;;;;;;4995127;28;20214;-78
2022/01/19 01:05:18;;;;;;;13.37;10.90;;;;;;;;;;4993980;28;20179;-78
2022/01/19 01:07:43;;;;;;;11.57;8.93;;;;;;;;;;5012657;28;20175;-77
2022/01/19 01:10:10;;;;;;;15.60;9.30;;;;;;;;;;4995832;28;20478;-78
2022/01/19 01:20:28;;;;;;;16.40;9.43;;;;;;;;;;5016505;28;20206;-78
2022/01/19 01:22:53;;;;;;;14.03;9.83;;;;;;;;;;4994858;28;20264;-78
2022/01/19 01:25:18;;;;;;;14.47;10.07;;;;;;;;;;4995060;28;20176;-78
2022/01/19 01:27:43;;;;;;;11.90;8.77;;;;;;;;;;4991508;28;20227;-78
2022/01/19 01:30:11;;;;;;;13.07;9.87;;;;;;;;;;4990617;28;20195;-78
2022/01/19 01:32:36;;;;;;;12.73;9.50;;;;;;;;;;4998440;28;20349;-77
2022/01/19 01:35:02;;;;;;;14.70;10.10;;;;;;;;;;4997406;28;20286;-77
2022/01/19 01:37:27;;;;;;;13.43;9.70;;;;;;;;;;4994480;28;20255;-78
2022/01/19 01:39:52;;;;;;;14.70;10.70;;;;;;;;;;4995609;28;20186;-78
2022/01/19 01:42:18;;;;;;;13.60;9.33;;;;;;;;;;5001474;28;20183;-78
2022/01/19 01:44:47;;;;;;;12.20;9.70;;;;;;;;;;4996174;28;20184;-78
2022/01/19 01:47:14;;;;;;;11.40;9.20;;;;;;;;;;4998312;28;20186;-78
2022/01/19 01:55:04;;;;;;;11.40;8.00;;;;;;;;;;5016388;28;20216;-77
2022/01/19 01:57:29;;;;;;;10.90;8.87;;;;;;;;;;4994876;28;20179;-78
2022/01/19 01:59:54;;;;;;;14.40;9.00;;;;;;;;;;4994738;28;20202;-78
2022/01/19 02:02:19;;;;;;;12.83;9.47;;;;;;;;;;4994325;28;20171;-78
2022/01/19 02:04:45;;;;;;;16.13;10.23;;;;;;;;;;4994652;28;20180;-78
2022/01/19 02:09:55;;;;;;;11.77;8.23;;;;;;;;;;5011406;28;20191;-78
2022/01/19 02:25:45;;;;;;;12.73;7.97;;;;;;;;;;5011750;28;20183;-77
2022/01/19 02:41:39;;;;;;;10.07;7.97;;;;;;;;;;5011249;28;20242;-77
2022/01/19 02:44:05;;;;;;;11.00;7.63;;;;;;;;;;4993760;28;20193;-77
2022/01/19 02:49:17;;;;;;;12.27;8.77;;;;;;;;;;4982113;28;20249;-77
2022/01/19 02:51:52;;;;;;;11.63;8.07;;;;;;;;;;4993291;28;20206;-77
2022/01/19 02:54:19;;;;;;;14.33;8.90;;;;;;;;;;4994114;28;20183;-77
2022/01/19 02:56:49;;;;;;;12.83;8.60;;;;;;;;;;4998214;28;20218;-77
2022/01/19 02:59:20;;;;;;;9.53;7.70;;;;;;;;;;4992804;28;20183;-77
2022/01/19 03:09:42;;;;;;;10.20;7.70;;;;;;;;;;5010464;28;20186;-77
2022/01/19 03:12:07;;;;;;;13.13;8.57;;;;;;;;;;4993938;28;20202;-77
2022/01/19 03:14:33;;;;;;;14.73;7.90;;;;;;;;;;5018486;28;20234;-77
2022/01/19 03:16:58;;;;;;;9.83;8.07;;;;;;;;;;4992772;28;20185;-77
2022/01/19 03:19:26;;;;;;;13.23;7.97;;;;;;;;;;4991657;28;20191;-77
2022/01/19 03:21:51;;;;;;;11.50;8.27;;;;;;;;;;4992559;28;20207;-77
2022/01/19 03:24:16;;;;;;;12.50;8.63;;;;;;;;;;4992389;28;20210;-77
2022/01/19 03:26:41;;;;;;;11.97;8.90;;;;;;;;;;4996669;28;20194;-77
2022/01/19 03:29:06;;;;;;;12.53;9.63;;;;;;;;;;4997433;28;20179;-77
2022/01/19 03:31:32;;;;;;;12.10;8.30;;;;;;;;;;4992568;28;20210;-77
2022/01/19 03:33:57;;;;;;;15.80;9.67;;;;;;;;;;4997122;28;20202;-77
2022/01/19 03:36:25;;;;;;;13.20;9.90;;;;;;;;;;4992941;28;20190;-77
2022/01/19 03:38:51;;;;;;;11.90;9.40;;;;;;;;;;4993511;28;20289;-77
2022/01/19 03:41:16;;;;;;;13.97;8.93;;;;;;;;;;4999153;28;20176;-77
2022/01/19 03:43:41;;;;;;;12.93;8.77;;;;;;;;;;4994923;28;20195;-77
2022/01/19 03:46:13;;;;;;;14.70;8.80;;;;;;;;;;4996403;28;20210;-77
2022/01/19 03:48:44;;;;;;;12.57;9.03;;;;;;;;;;4991651;28;20203;-77
2022/01/19 03:51:10;;;;;;;12.60;9.17;;;;;;;;;;4994577;28;20178;-77
2022/01/19 03:53:35;;;;;;;13.47;9.23;;;;;;;;;;4998755;28;20391;-77
2022/01/19 03:56:01;;;;;;;14.13;9.03;;;;;;;;;;5000668;28;20254;-77
2022/01/19 03:58:26;;;;;;;14.43;10.13;;;;;;;;;;4996464;28;20171;-77
2022/01/19 04:00:56;;;;;;;16.73;10.03;;;;;;;;;;5001368;28;20209;-77
2022/01/19 04:03:31;;;;;;;14.90;10.07;;;;;;;;;;4998387;28;20188;-77
2022/01/19 04:06:02;;;;;;;15.10;9.30;;;;;;;;;;4995674;28;20483;-77
2022/01/19 04:08:28;;;;;;;14.40;9.70;;;;;;;;;;5010221;28;20184;-77
2022/01/19 04:10:53;;;;;;;12.03;9.13;;;;;;;;;;4996777;28;20194;-77
2022/01/19 04:15:52;;;;;;;15.70;10.33;;;;;;;;;;5013169;28;20210;-77
2022/01/19 04:18:18;;;;;;;18.17;10.60;;;;;;;;;;4994661;28;20214;-77
2022/01/19 04:20:47;;;;;;;15.30;10.10;;;;;;;;;;4999395;28;20179;-77
2022/01/19 04:23:12;;;;;;;14.50;10.17;;;;;;;;;;4996479;28;20190;-77
2022/01/19 04:25:38;;;;;;;16.93;10.43;;;;;;;;;;4996533;28;20180;-77
2022/01/19 04:28:07;;;;;;;13.10;9.73;;;;;;;;;;4995045;28;20185;-77
2022/01/19 04:30:33;;;;;;;17.50;9.77;;;;;;;;;;4997197;28;20377;-77
2022/01/19 04:35:26;;;;;;;17.13;10.27;;;;;;;;;;5017101;28;20187;-77
2022/01/19 04:38:15;;;;;;;15.47;9.93;;;;;;;;;;4998470;28;20227;-77
2022/01/19 04:44:04;;;;;;;15.37;10.60;;;;;;;;;;5015405;28;20313;-77
2022/01/19 05:05:31;;;;;;;11.87;9.47;;;;;;;;;;4907152;29;20303;-77
2022/01/19 05:08:03;;;;;;;14.47;9.07;;;;;;;;;;4908291;29;20282;-77
2022/01/19 05:15:50;;;;;;;12.27;8.97;;;;;;;;;;4914394;29;20193;-77
2022/01/19 05:18:16;;;;;;;15.40;10.17;;;;;;;;;;4892195;29;20530;-77
2022/01/19 05:20:41;;;;;;;12.70;9.23;;;;;;;;;;4950607;28;20311;-77
2022/01/19 05:23:07;;;;;;;17.17;9.93;;;;;;;;;;4996528;28;20187;-77
2022/01/19 05:25:32;;;;;;;13.97;9.73;;;;;;;;;;4994563;28;20177;-76
2022/01/19 05:27:57;;;;;;;14.83;10.00;;;;;;;;;;5011023;28;20247;-76
2022/01/19 05:30:23;;;;;;;13.27;9.67;;;;;;;;;;4998659;28;20175;-76
2022/01/19 05:32:48;;;;;;;14.67;9.90;;;;;;;;;;4995060;28;20208;-76
2022/01/19 05:35:13;;;;;;;12.73;9.43;;;;;;;;;;4994519;28;20185;-76
2022/01/19 05:37:38;;;;;;;14.63;9.23;;;;;;;;;;4989523;28;20238;-76
2022/01/19 05:40:04;;;;;;;14.13;9.03;;;;;;;;;;4991585;28;20173;-76
2022/01/19 05:42:29;;;;;;;18.03;9.47;;;;;;;;;;5013723;28;20258;-76
2022/01/19 05:44:55;;;;;;;14.20;8.63;;;;;;;;;;4995754;28;20261;-76
2022/01/19 05:47:20;;;;;;;18.60;9.40;;;;;;;;;;4998857;28;20190;-76
2022/01/19 05:49:46;;;;;;;21.47;10.87;;;;;;;;;;4994489;28;20168;-76
2022/01/19 05:52:11;;;;;;;18.03;10.13;;;;;;;;;;4994966;28;20199;-76
2022/01/19 05:54:37;;;;;;;16.10;10.87;;;;;;;;;;4998850;28;20187;-77
2022/01/19 05:57:02;;;;;;;12.90;8.97;;;;;;;;;;4993278;28;20173;-76
2022/01/19 05:59:27;;;;;;;17.60;9.33;;;;;;;;;;5011910;28;20180;-76
2022/01/19 06:01:52;;;;;;;13.23;10.13;;;;;;;;;;4991906;28;20175;-76
2022/01/19 06:04:17;;;;;;;16.20;10.40;;;;;;;;;;4999977;28;20179;-76
2022/01/19 06:06:43;;;;;;;12.27;9.87;;;;;;;;;;5014011;28;20207;-76
2022/01/19 06:09:32;;;;;;;11.40;8.57;;;;;;;;;;4993758;28;20219;-76
2022/01/19 06:11:56;;;;;;;11.73;8.77;;;;;;;;;;5009787;28;20248;-77
2022/01/19 06:14:21;;;;;;;17.00;9.50;;;;;;;;;;4995512;28;20223;-79
2022/01/19 06:16:46;;;;;;;13.33;8.03;;;;;;;;;;5011110;28;20180;-80
2022/01/19 06:19:13;;;;;;;14.70;8.17;;;;;;;;;;4994192;28;20239;-79
2022/01/19 06:21:38;;;;;;;14.40;8.30;;;;;;;;;;4995239;28;20179;-80
2022/01/19 06:24:04;;;;;;;11.73;8.07;;;;;;;;;;4995274;28;20304;-80
2022/01/19 06:26:29;;;;;;;18.97;11.10;;;;;;;;;;4993583;28;20207;-80
2022/01/19 06:28:54;;;;;;;19.00;15.10;;;;;;;;;;4995097;28;20215;-80
2022/01/19 06:31:19;;;;;;;16.23;10.37;;;;;;;;;;4993699;28;20180;-80
2022/01/19 06:33:44;;;;;;;18.20;11.90;;;;;;;;;;4993228;28;20203;-80
2022/01/19 06:36:09;;;;;;;17.93;12.20;;;;;;;;;;4994041;28;20185;-80
2022/01/19 06:38:35;;;;;;;13.83;9.10;;;;;;;;;;4993877;28;20220;-80
2022/01/19 06:41:00;;;;;;;16.47;9.33;;;;;;;;;;4996144;28;20321;-80
2022/01/19 06:43:26;;;;;;;20.37;12.60;;;;;;;;;;4992548;28;20272;-80
2022/01/19 06:45:52;;;;;;;14.47;9.83;;;;;;;;;;4995819;28;20191;-78
2022/01/19 06:48:17;;;;;;;16.60;11.80;;;;;;;;;;4995712;28;20267;-79
2022/01/19 06:50:42;;;;;;;18.17;11.50;;;;;;;;;;4999238;28;20280;-79
2022/01/19 06:53:09;;;;;;;15.67;9.27;;;;;;;;;;4994292;28;20298;-79
2022/01/19 06:55:34;;;;;;;14.67;9.23;;;;;;;;;;4997797;28;20267;-79
2022/01/19 06:57:59;;;;;;;13.63;8.47;;;;;;;;;;4993367;28;20176;-80
2022/01/19 07:00:24;;;;;;;11.47;7.90;;;;;;;;;;4994690;28;20273;-79
2022/01/19 07:02:49;;;;;;;12.53;8.30;;;;;;;;;;4996606;28;20180;-79
2022/01/19 07:05:15;;;;;;;12.07;8.63;;;;;;;;;;4998150;28;20187;-79
2022/01/19 07:07:40;;;;;;;13.27;9.63;;;;;;;;;;4996348;28;20188;-80
2022/01/19 07:10:07;;;;;;;12.63;8.60;;;;;;;;;;4993513;28;20213;-79
2022/01/19 07:12:33;;;;;;;10.90;8.20;;;;;;;;;;4998438;28;20227;-80
2022/01/19 07:14:58;;;;;;;10.40;7.57;;;;;;;;;;4996939;28;20206;-79
2022/01/19 07:17:26;;;;;;;13.40;8.03;;;;;;;;;;4991168;28;20228;-79
2022/01/19 07:19:52;;;;;;;9.73;7.57;;;;;;;;;;4988488;28;20179;-79
2022/01/19 07:22:17;;;;;;;13.03;8.57;;;;;;;;;;5010027;28;20262;-79
2022/01/19 07:24:42;;;;;;;12.77;7.97;;;;;;;;;;5011218;28;20179;-79
2022/01/19 07:27:08;;;;;;;15.03;9.47;;;;;;;;;;4991359;28;20240;-80
2022/01/19 07:29:33;;;;;;;18.03;12.60;;;;;;;;;;4990962;28;20180;-79
2022/01/19 07:31:59;;;;;;;19.73;10.43;;;;;;;;;;4994866;28;20230;-79
2022/01/19 07:34:25;;;;;;;14.37;9.70;;;;;;;;;;4996139;28;20218;-79
2022/01/19 07:36:51;;;;;;;14.43;9.60;;;;;;;;;;4991968;28;20235;-79
2022/01/19 07:39:16;;;;;;;14.67;9.80;;;;;;;;;;4989774;28;20216;-79
2022/01/19 07:41:42;;;;;;;14.77;9.83;;;;;;;;;;5003245;28;20185;-79
2022/01/19 07:44:07;;;;;;;11.50;8.70;;;;;;;;;;4992192;28;20179;-79
2022/01/19 07:46:32;;;;;;;14.33;9.77;;;;;;;;;;4994009;28;20268;-79
2022/01/19 07:48:57;;;;;;;15.63;10.90;;;;;;;;;;4993226;28;20243;-79
2022/01/19 07:51:22;;;;;;;16.27;10.17;;;;;;;;;;4995387;28;20264;-79
2022/01/19 07:53:48;;;;;;;20.23;12.37;;;;;;;;;;4996902;28;20184;-79
2022/01/19 07:56:13;;;;;;;15.80;9.53;;;;;;;;;;5014010;28;20390;-79
2022/01/19 07:58:38;;;;;;;15.73;9.23;;;;;;;;;;4992182;28;20179;-80
2022/01/19 08:01:03;;;;;;;13.30;7.77;;;;;;;;;;4992652;28;20179;-79
2022/01/19 08:03:28;;;;;;;17.77;14.13;;;;;;;;;;4999059;28;20175;-80
2022/01/19 08:05:53;;;;;;;12.03;9.77;;;;;;;;;;4990876;28;20188;-80
2022/01/19 08:08:19;;;;;;;11.43;8.90;;;;;;;;;;4991706;28;20266;-79
2022/01/19 08:10:45;;;;;;;13.07;8.97;;;;;;;;;;4996201;28;20183;-80
2022/01/19 08:13:11;;;;;;;12.60;8.53;;;;;;;;;;5010835;28;20208;-79
2022/01/19 08:15:36;;;;;;;18.43;14.07;;;;;;;;;;4998776;28;20181;-80
2022/01/19 08:18:02;;;;;;;15.10;8.50;;;;;;;;;;4996348;28;20236;-79
2022/01/19 08:20:27;;;;;;;11.93;8.13;;;;;;;;;;5012392;28;20208;-80
2022/01/19 08:22:52;;;;;;;12.70;7.80;;;;;;;;;;4993257;28;20192;-80
2022/01/19 08:25:17;;;;;;;12.90;7.73;;;;;;;;;;4994803;28;20194;-80
2022/01/19 08:27:43;;;;;;;14.77;9.37;;;;;;;;;;4989048;28;20198;-80
2022/01/19 08:30:09;;;;;;;14.90;9.13;;;;;;;;;;4992956;28;20190;-80
2022/01/19 08:32:35;;;;;;;13.57;9.60;;;;;;;;;;4992848;28;20209;-79
2022/01/19 08:35:01;;;;;;;16.90;10.47;;;;;;;;;;4993454;28;20340;-79
2022/01/19 08:37:26;;;;;;;18.37;10.63;;;;;;;;;;5010153;28;20260;-80
2022/01/19 08:39:53;;;;;;;12.97;9.00;;;;;;;;;;4995345;28;20277;-80
2022/01/19 08:42:18;;;;;;;13.10;8.97;;;;;;;;;;5013896;28;20200;-80
2022/01/19 08:44:43;;;;;;;12.03;8.60;;;;;;;;;;4997889;28;20437;-80
2022/01/19 08:47:08;;;;;;;12.67;7.87;;;;;;;;;;4998762;28;20188;-80
2022/01/19 08:49:34;;;;;;;12.87;8.23;;;;;;;;;;4999525;28;20184;-80
2022/01/19 08:52:00;;;;;;;15.07;8.77;;;;;;;;;;4996284;28;20209;-80
2022/01/19 08:54:25;;;;;;;12.57;8.07;;;;;;;;;;4996302;28;20180;-80
2022/01/19 08:56:50;;;;;;;17.17;10.17;;;;;;;;;;4992727;28;20182;-79
2022/01/19 08:59:16;;;;;;;14.50;9.13;;;;;;;;;;5002933;28;20175;-80
2022/01/19 09:01:41;;;;;;;12.33;8.73;;;;;;;;;;4998767;28;20187;-80
2022/01/19 09:04:06;;;;;;;13.47;9.30;;;;;;;;;;5018963;28;20179;-80
2022/01/19 09:06:31;;;;;;;12.37;7.93;;;;;;;;;;4995922;28;20168;-80
2022/01/19 09:08:56;;;;;;;15.30;8.73;;;;;;;;;;5000222;28;20172;-79
2022/01/19 09:11:22;;;;;;;15.93;8.93;;;;;;;;;;5002596;28;20242;-79
2022/01/19 09:13:50;;;;;;;12.70;8.30;;;;;;;;;;5001993;28;20194;-80
2022/01/19 09:16:15;;;;;;;14.17;9.30;;;;;;;;;;5000216;28;20219;-80
2022/01/19 09:18:40;;;;;;;15.10;9.10;;;;;;;;;;4995715;28;20213;-79
2022/01/19 09:21:06;;;;;;;11.50;8.70;;;;;;;;;;5346869;23;20259;-79
2022/01/19 09:23:31;;;;;;;15.47;10.73;;;;;;;;;;5056744;28;20186;-79
2022/01/19 09:25:56;;;;;;;18.10;11.47;;;;;;;;;;5055364;28;20216;-79
2022/01/19 09:28:22;;;;;;;14.77;8.80;;;;;;;;;;5053880;28;20309;-79
2022/01/19 09:30:48;;;;;;;15.83;9.40;;;;;;;;;;5072680;28;20240;-79
2022/01/19 09:33:19;;;;;;;16.80;9.30;;;;;;;;;;5054591;28;20214;-79
2022/01/19 09:38:32;;;;;;;13.70;9.20;;;;;;;;;;5071419;28;20238;-79
2022/01/19 09:40:58;;;;;;;14.67;9.47;;;;;;;;;;5054025;28;20180;-79
2022/01/19 09:43:23;;;;;;;14.30;9.40;;;;;;;;;;5054661;28;20182;-79
2022/01/19 09:45:49;;;;;;;13.87;9.33;;;;;;;;;;5058115;28;20186;-79
2022/01/19 09:48:14;;;;;;;14.83;9.03;;;;;;;;;;5054524;28;20181;-79
2022/01/19 09:50:40;;;;;;;14.57;10.03;;;;;;;;;;5059231;28;20174;-79
2022/01/19 09:53:06;;;;;;;19.60;11.80;;;;;;;;;;5071983;28;20193;-79
2022/01/19 09:55:31;;;;;;;13.60;8.70;;;;;;;;;;5058101;28;20171;-79
2022/01/19 09:57:57;;;;;;;15.70;10.73;;;;;;;;;;5056837;28;20187;-79
2022/01/19 10:00:22;;;;;;;12.33;9.07;;;;;;;;;;5054837;28;20269;-79
2022/01/19 10:03:06;;;;;;;16.27;9.77;;;;;;;;;;5057924;28;20293;-79
2022/01/19 10:05:31;;;;;;;14.77;9.83;;;;;;;;;;5045402;28;20177;-79
2022/01/19 10:07:59;;;;;;;14.37;9.57;;;;;;;;;;5054927;28;20318;-79
2022/01/19 10:10:24;;;;;;;18.27;9.40;;;;;;;;;;5128497;22;20253;-78
2022/01/19 10:18:19;;;;;;;13.47;8.97;;;;;;;;;;5030061;28;20178;-78
2022/01/19 10:20:45;;;;;;;13.33;9.10;;;;;;;;;;5030338;28;20167;-78
2022/01/19 10:23:33;;;;;;;19.57;10.20;;;;;;;;;;5030441;28;20196;-78
2022/01/19 10:25:59;;;;;;;19.67;10.73;;;;;;;;;;5018896;28;20196;-78
2022/01/19 10:28:24;;;;;;;14.43;9.63;;;;;;;;;;5028958;28;20185;-78
2022/01/19 10:30:49;;;;;;;15.40;10.10;;;;;;;;;;5034246;28;20223;-77
2022/01/19 10:33:18;;;;;;;15.20;9.13;;;;;;;;;;5029614;28;20284;-77
2022/01/19 10:35:45;;;;;;;13.27;9.77;;;;;;;;;;5030589;28;20190;-77
2022/01/19 10:38:13;;;;;;;11.67;8.10;;;;;;;;;;5029221;28;20179;-77
2022/01/19 10:40:40;;;;;;;12.80;9.03;;;;;;;;;;5023112;28;20175;-77
2022/01/19 10:43:24;;;;;;;11.57;7.90;;;;;;;;;;5032342;28;20178;-77
2022/01/19 10:45:49;;;;;;;10.47;8.20;;;;;;;;;;5029875;28;20182;-78
2022/01/19 10:48:29;;;;;;;8.80;6.70;;;;;;;;;;5029764;28;20205;-78
2022/01/19 10:51:04;;;;;;;7.43;5.43;;;;;;;;;;5029852;28;20194;-78
2022/01/19 10:53:30;;;;;;;9.70;6.27;;;;;;;;;;5029276;28;20457;-78
2022/01/19 10:55:55;;;;;;;9.13;5.70;;;;;;;;;;5024605;28;20182;-78
2022/01/19 10:58:21;;;;;;;7.40;5.77;;;;;;;;;;5028951;28;20171;-78
2022/01/19 11:00:54;;;;;;;7.70;6.30;;;;;;;;;;5025816;28;20218;-78
2022/01/19 11:03:21;;;;;;;8.20;6.30;;;;;;;;;;5024500;28;20235;-78
2022/01/19 11:05:46;;;;;;;8.67;5.27;;;;;;;;;;5033143;28;20182;-78
2022/01/19 11:08:12;;;;;;;6.07;4.77;;;;;;;;;;5020812;28;20183;-78
2022/01/19 11:10:38;;;;;;;6.80;5.40;;;;;;;;;;5024321;28;20368;-78
2022/01/19 11:13:05;;;;;;;9.50;5.50;;;;;;;;;;5026483;28;20214;-78
2022/01/19 11:15:30;;;;;;;8.63;5.83;;;;;;;;;;5035776;28;20179;-78
2022/01/19 11:17:56;;;;;;;10.93;6.00;;;;;;;;;;5028662;28;20175;-78
2022/01/19 11:20:23;;;;;;;9.07;6.37;;;;;;;;;;5029075;28;20233;-78
2022/01/19 11:23:07;;;;;;;6.80;5.50;;;;;;;;;;5030618;28;20175;-78
2022/01/19 11:25:45;;;;;;;7.30;5.23;;;;;;;;;;5027936;28;20237;-79
2022/01/19 11:28:10;;;;;;;8.03;5.40;;;;;;;;;;5026133;28;20198;-78
2022/01/19 11:30:36;;;;;;;7.57;5.40;;;;;;;;;;5030400;28;20175;-78
2022/01/19 11:33:15;;;;;;;10.30;5.50;;;;;;;;;;5026627;28;20210;-78
2022/01/19 11:35:42;;;;;;;4.17;3.70;;;;;;;;;;5032710;28;20225;-79
2022/01/19 11:38:46;;;;;;;5.50;4.17;;;;;;;;;;5029309;28;20174;-78
2022/01/19 11:41:14;;;;;;;13.00;8.70;;;;;;;;;;4986520;28;20184;-79
2022/01/19 11:43:48;;;;;;;13.07;6.37;;;;;;;;;;4988855;28;20214;-79
2022/01/19 11:46:26;;;;;;;8.67;7.43;;;;;;;;;;4971829;28;20188;-79
2022/01/19 11:48:52;;;;;;;7.83;5.57;;;;;;;;;;4961950;28;20184;-78
2022/01/19 11:51:20;;;;;;;11.90;6.57;;;;;;;;;;4969090;28;20326;-78
2022/01/19 11:54:03;;;;;;;5.50;4.83;;;;;;;;;;4971543;28;20215;-79
2022/01/19 11:56:29;;;;;;;13.03;7.73;;;;;;;;;;4988279;28;20176;-79
2022/01/19 11:59:02;;;;;;;12.90;8.27;;;;;;;;;;4988733;28;20231;-78
2022/01/19 12:01:28;;;;;;;15.83;8.53;;;;;;;;;;4987936;28;20188;-79
2022/01/19 12:04:11;;;;;;;12.13;8.37;;;;;;;;;;4988988;28;20176;-79
2022/01/19 12:06:36;;;;;;;8.57;7.37;;;;;;;;;;4970840;28;20184;-79
2022/01/19 12:09:03;;;;;;;10.07;6.83;;;;;;;;;;4971922;28;20230;-79
2022/01/19 12:11:29;;;;;;;9.97;6.87;;;;;;;;;;4980641;28;20219;-79
2022/01/19 12:14:20;;;;;;;13.00;7.53;;;;;;;;;;5014455;28;20300;-79
2022/01/19 12:19:28;;;;;;;6.23;5.33;;;;;;;;;;5029223;28;20183;-79
2022/01/19 12:21:56;;;;;;;10.20;7.03;;;;;;;;;;5011250;28;20182;-79
2022/01/19 12:24:25;;;;;;;8.60;7.00;;;;;;;;;;5022741;28;20168;-79
2022/01/19 12:27:08;;;;;;;7.60;5.53;;;;;;;;;;5020411;28;20186;-79
2022/01/19 12:29:34;;;;;;;9.40;7.00;;;;;;;;;;5013219;28;20182;-79
2022/01/19 12:32:00;;;;;;;12.70;6.47;;;;;;;;;;5019597;28;20203;-79
2022/01/19 12:34:26;;;;;;;9.13;6.63;;;;;;;;;;5015632;28;20190;-79
2022/01/19 12:36:51;;;;;;;9.20;6.33;;;;;;;;;;5015753;28;20175;-79
2022/01/19 12:39:26;;;;;;;10.90;5.83;;;;;;;;;;5016084;28;20181;-79
2022/01/19 12:42:17;;;;;;;9.13;6.20;;;;;;;;;;5021643;28;20182;-79
2022/01/19 12:44:45;;;;;;;9.40;6.23;;;;;;;;;;5025530;28;20320;-79
2022/01/19 12:47:29;;;;;;;7.73;5.50;;;;;;;;;;5020187;28;20174;-80
2022/01/19 12:50:03;;;;;;;11.63;7.00;;;;;;;;;;5021565;28;20178;-80
2022/01/19 12:52:30;;;;;;;8.73;5.90;;;;;;;;;;5015238;28;20297;-79
2022/01/19 12:54:57;;;;;;;8.97;5.73;;;;;;;;;;5019745;28;20187;-79
2022/01/19 12:57:22;;;;;;;7.33;5.47;;;;;;;;;;5012048;28;20171;-79
2022/01/19 12:59:49;;;;;;;9.17;6.07;;;;;;;;;;5015677;28;20175;-80
2022/01/19 13:02:16;;;;;;;13.47;8.67;;;;;;;;;;5035523;28;20399;-79
2022/01/19 13:04:44;;;;;;;8.30;5.80;;;;;;;;;;5016761;28;20197;-79
2022/01/19 13:07:21;;;;;;;15.47;9.97;;;;;;;;;;5013580;28;20186;-79
2022/01/19 13:10:09;;;;;;;10.13;6.37;;;;;;;;;;5017283;28;20229;-80
2022/01/19 13:12:54;;;;;;;8.40;5.67;;;;;;;;;;5032640;28;20195;-80
2022/01/19 13:15:20;;;;;;;7.30;5.47;;;;;;;;;;5033755;28;20179;-80
2022/01/19 13:17:50;;;;;;;7.63;5.30;;;;;;;;;;5029791;28;20181;-80
2022/01/19 13:20:17;;;;;;;36.17;19.20;;;;;;;;;;5028205;28;20179;-79
2022/01/19 13:22:43;;;;;;;8.27;7.20;;;;;;;;;;5030973;28;20178;-79
2022/01/19 13:25:35;;;;;;;7.10;5.80;;;;;;;;;;5022454;28;20190;-79
2022/01/19 13:28:01;;;;;;;7.63;5.07;;;;;;;;;;5024498;28;20191;-80
2022/01/19 13:30:27;;;;;;;7.43;5.97;;;;;;;;;;5031122;28;20257;-79
2022/01/19 13:32:53;;;;;;;6.93;5.53;;;;;;;;;;5031794;28;20274;-80
2022/01/19 13:35:19;;;;;;;7.20;4.67;;;;;;;;;;5033637;28;20270;-79
2022/01/19 13:37:46;;;;;;;5.77;5.17;;;;;;;;;;5026872;28;20174;-81
2022/01/19 13:40:16;;;;;;;6.53;4.93;;;;;;;;;;5030196;28;20178;-81
2022/01/19 13:42:47;;;;;;;6.20;4.73;;;;;;;;;;5030659;28;20198;-81
2022/01/19 13:45:48;;;;;;;4.97;4.07;;;;;;;;;;5036819;28;20204;-81
2022/01/19 13:50:44;;;;;;;6.20;4.23;;;;;;;;;;5031987;28;20190;-81
2022/01/19 13:53:10;;;;;;;6.60;4.87;;;;;;;;;;5030826;28;20206;-81
2022/01/19 13:55:35;;;;;;;6.43;4.77;;;;;;;;;;5028618;28;20177;-81
2022/01/19 13:58:12;;;;;;;5.17;4.17;;;;;;;;;;5028999;28;20262;-80
2022/01/19 14:00:49;;;;;;;6.37;4.23;;;;;;;;;;5030755;28;20179;-80
2022/01/19 14:03:15;;;;;;;7.20;4.80;;;;;;;;;;5029962;28;20189;-81
2022/01/19 14:05:47;;;;;;;6.70;5.37;;;;;;;;;;5027767;28;20195;-81
2022/01/19 14:08:13;;;;;;;11.37;6.20;;;;;;;;;;5030930;28;20183;-81
2022/01/19 14:10:42;;;;;;;10.60;6.67;;;;;;;;;;5028029;28;20225;-81
2022/01/19 14:13:28;;;;;;;9.17;6.03;;;;;;;;;;5030043;28;20203;-81
2022/01/19 14:15:57;;;;;;;5.40;4.37;;;;;;;;;;5029543;28;20203;-81
2022/01/19 14:18:24;;;;;;;7.27;5.60;;;;;;;;;;5029690;28;20171;-81
2022/01/19 14:21:05;;;;;;;6.77;5.30;;;;;;;;;;5031196;28;20463;-80
2022/01/19 14:23:30;;;;;;;5.33;4.40;;;;;;;;;;5033585;28;20182;-80
2022/01/19 14:26:04;;;;;;;6.07;4.97;;;;;;;;;;5028282;28;20239;-81
2022/01/19 14:28:30;;;;;;;5.33;4.37;;;;;;;;;;5028797;28;20210;-81
2022/01/19 14:31:01;;;;;;;7.40;5.27;;;;;;;;;;5030075;28;20186;-81
2022/01/19 14:33:26;;;;;;;8.87;6.73;;;;;;;;;;5025000;28;20221;-81
2022/01/19 14:35:56;;;;;;;7.40;5.43;;;;;;;;;;5029843;28;20186;-81
2022/01/19 14:38:24;;;;;;;6.60;5.30;;;;;;;;;;5030197;28;20178;-81
2022/01/19 14:41:08;;;;;;;8.27;5.80;;;;;;;;;;5029944;28;20182;-81
2022/01/19 14:43:47;;;;;;;6.47;5.60;;;;;;;;;;5029719;28;20277;-81
2022/01/19 14:46:13;;;;;;;4.87;4.37;;;;;;;;;;5027198;28;20273;-81
2022/01/19 14:48:46;;;;;;;6.37;4.87;;;;;;;;;;5029922;28;20181;-81
2022/01/19 14:51:28;;;;;;;7.03;4.87;;;;;;;;;;5029849;28;20191;-81
2022/01/19 14:53:56;;;;;;;9.27;5.53;;;;;;;;;;5032666;28;20210;-81
2022/01/19 14:56:22;;;;;;;16.87;5.63;;;;;;;;;;5030777;28;20266;-81
2022/01/19 14:58:57;;;;;;;8.33;5.63;;;;;;;;;;5022663;28;20182;-81
2022/01/19 15:01:23;;;;;;;8.23;5.07;;;;;;;;;;5026291;28;20225;-81
2022/01/19 15:03:48;;;;;;;9.20;5.53;;;;;;;;;;5023990;28;20183;-81
2022/01/19 15:06:13;;;;;;;6.50;4.93;;;;;;;;;;5029538;28;20179;-81
2022/01/19 15:08:38;;;;;;;9.60;6.40;;;;;;;;;;5029951;28;20189;-81
2022/01/19 15:11:03;;;;;;;7.60;5.80;;;;;;;;;;5029588;28;20226;-81
2022/01/19 15:13:28;;;;;;;6.13;4.70;;;;;;;;;;5031100;28;20238;-81
2022/01/19 15:15:54;;;;;;;7.00;5.30;;;;;;;;;;5028041;28;20182;-81
2022/01/19 15:18:19;;;;;;;7.63;5.67;;;;;;;;;;5028261;28;20179;-81
2022/01/19 15:20:44;;;;;;;7.40;5.70;;;;;;;;;;5031081;28;20190;-81
2022/01/19 15:23:09;;;;;;;6.50;4.97;;;;;;;;;;5033324;28;20198;-81
2022/01/19 15:25:36;;;;;;;6.80;5.80;;;;;;;;;;5029677;28;20293;-81
2022/01/19 15:28:03;;;;;;;6.20;5.00;;;;;;;;;;5030327;28;20182;-81
2022/01/19 15:30:29;;;;;;;9.27;5.93;;;;;;;;;;5029046;28;20182;-81
2022/01/19 15:32:54;;;;;;;7.83;5.60;;;;;;;;;;5030827;28;20270;-81
2022/01/19 15:35:20;;;;;;;6.80;5.70;;;;;;;;;;5027622;28;20262;-81
2022/01/19 15:37:45;;;;;;;11.53;6.07;;;;;;;;;;5029219;28;20175;-81
2022/01/19 15:40:14;;;;;;;6.07;5.47;;;;;;;;;;5031377;28;20183;-81
2022/01/19 15:42:40;;;;;;;7.50;5.00;;;;;;;;;;5031556;28;20190;-81
2022/01/19 15:45:05;;;;;;;6.63;5.80;;;;;;;;;;5029000;28;20179;-81
2022/01/19 15:47:30;;;;;;;8.37;5.20;;;;;;;;;;5029953;28;20194;-81
2022/01/19 15:49:55;;;;;;;6.67;4.73;;;;;;;;;;5031455;28;20192;-81
2022/01/19 15:52:25;;;;;;;8.80;5.63;;;;;;;;;;5032981;28;20262;-82
2022/01/19 15:54:50;;;;;;;8.20;5.87;;;;;;;;;;5033658;28;20187;-82
2022/01/19 15:57:15;;;;;;;8.13;6.43;;;;;;;;;;5032840;28;20177;-81
2022/01/19 15:59:41;;;;;;;8.40;7.47;;;;;;;;;;5033025;28;20187;-81
2022/01/19 16:02:07;;;;;;;9.23;6.70;;;;;;;;;;5032454;28;20210;-81
2022/01/19 16:04:32;;;;;;;9.67;6.57;;;;;;;;;;5027879;28;20268;-81
2022/01/19 16:06:57;;;;;;;7.97;6.40;;;;;;;;;;5031431;28;20218;-81
2022/01/19 16:09:22;;;;;;;9.50;5.90;;;;;;;;;;5031098;28;20183;-81
2022/01/19 16:16:55;;;;;;;7.97;6.40;;;;;;;;;;5010696;28;20250;-82
2022/01/19 16:19:21;;;;;;;11.00;6.83;;;;;;;;;;5029741;28;20198;-82
2022/01/19 16:21:46;;;;;;;7.07;5.23;;;;;;;;;;4999754;28;20273;-82